Time;durP1;ratioP1;P1;durP2;ratioP2;P2;SDS_P1;SDS_P2;PMS_P1;PMS_P2;Temp;Humidity;BMP_temperature;BMP_pressure;BME280_temperature;BME280_humidity;BME280_pressure;Samples;Min_cycle;Max_cycle;Signal;HPM_P1;HPM_P2
2023/03/16 00:00:24;;;;;;;6.43;3.00;;;2.40;99.90;;;;;;5062552;28;20221;-78
2023/03/16 00:02:49;;;;;;;6.33;2.40;;;2.30;99.90;;;;;;5067873;28;20207;-79
2023/03/16 00:05:15;;;;;;;6.03;2.23;;;2.30;99.90;;;;;;5070055;28;20234;-79
2023/03/16 00:07:42;;;;;;;7.53;2.33;;;2.30;99.90;;;;;;5066274;28;20183;-80
2023/03/16 00:10:11;;;;;;;5.80;2.13;;;2.20;99.90;;;;;;5054128;28;20607;-80
2023/03/16 00:12:37;;;;;;;7.53;2.20;;;2.20;99.90;;;;;;5051824;28;20219;-79
2023/03/16 00:15:03;;;;;;;4.03;2.40;;;2.20;99.90;;;;;;5070225;28;20606;-79
2023/03/16 00:17:29;;;;;;;6.30;2.20;;;2.20;99.90;;;;;;5053790;28;20260;-80
2023/03/16 00:20:10;;;;;;;8.80;2.67;;;2.20;99.90;;;;;;5064811;28;20175;-80
2023/03/16 00:22:36;;;;;;;6.30;2.33;;;2.20;99.90;;;;;;5062374;28;20233;-80
2023/03/16 00:25:03;;;;;;;7.80;1.87;;;2.10;99.90;;;;;;5070941;28;20203;-80
2023/03/16 00:27:29;;;;;;;5.27;1.50;;;2.10;99.90;;;;;;5051294;28;20207;-78
2023/03/16 00:29:55;;;;;;;5.63;1.93;;;2.00;99.90;;;;;;5053823;28;20199;-80
2023/03/16 00:32:24;;;;;;;5.97;2.03;;;2.10;99.90;;;;;;5063084;28;20283;-80
2023/03/16 00:34:50;;;;;;;6.73;1.80;;;2.00;99.90;;;;;;5066549;28;20205;-79
2023/03/16 00:37:17;;;;;;;6.03;2.00;;;2.10;99.90;;;;;;5054611;28;20179;-80
2023/03/16 00:39:44;;;;;;;7.03;1.90;;;2.10;99.90;;;;;;5060423;28;20280;-79
2023/03/16 00:42:12;;;;;;;7.90;1.90;;;2.10;99.90;;;;;;5064295;28;20246;-80
2023/03/16 00:44:38;;;;;;;9.53;2.47;;;2.10;99.90;;;;;;5050261;28;20251;-77
2023/03/16 00:47:07;;;;;;;8.73;2.00;;;2.10;99.90;;;;;;5050042;28;20708;-81
2023/03/16 00:49:36;;;;;;;8.10;2.60;;;2.10;99.90;;;;;;5051374;28;20175;-79
2023/03/16 00:52:03;;;;;;;5.60;1.87;;;2.10;99.90;;;;;;5053971;28;20207;-78
2023/03/16 00:54:31;;;;;;;6.07;2.20;;;2.10;99.90;;;;;;5051413;28;20219;-79
2023/03/16 00:56:58;;;;;;;7.27;2.30;;;2.00;99.90;;;;;;5047508;28;20204;-78
2023/03/16 00:59:25;;;;;;;10.83;2.70;;;2.00;99.90;;;;;;5052805;28;20211;-80
2023/03/16 01:01:51;;;;;;;3.43;2.00;;;2.00;99.90;;;;;;5067011;28;20184;-78
2023/03/16 01:04:18;;;;;;;9.57;2.43;;;2.00;99.90;;;;;;5067885;28;20624;-80
2023/03/16 01:06:44;;;;;;;8.27;2.30;;;2.00;99.90;;;;;;5068678;28;20360;-80
2023/03/16 01:09:10;;;;;;;7.37;2.40;;;2.00;99.90;;;;;;5083187;28;20211;-81
2023/03/16 01:11:36;;;;;;;5.37;1.90;;;2.00;99.90;;;;;;5080221;28;20245;-79
2023/03/16 01:14:02;;;;;;;4.20;1.67;;;2.00;99.90;;;;;;5063186;28;20203;-79
2023/03/16 01:16:28;;;;;;;4.37;1.70;;;1.90;99.90;;;;;;5065665;28;20191;-80
2023/03/16 01:18:56;;;;;;;10.80;2.20;;;2.00;99.90;;;;;;5088520;28;20240;-79
2023/03/16 01:21:22;;;;;;;7.37;1.80;;;1.90;99.90;;;;;;5061032;28;20202;-80
2023/03/16 01:23:48;;;;;;;4.90;2.40;;;2.00;99.90;;;;;;5084871;28;20215;-80
2023/03/16 01:26:17;;;;;;;5.07;1.93;;;1.90;99.90;;;;;;5068586;28;20215;-80
2023/03/16 01:28:43;;;;;;;4.97;2.00;;;1.90;99.90;;;;;;5059614;28;20613;-80
2023/03/16 01:31:13;;;;;;;8.80;1.90;;;1.90;99.90;;;;;;5060264;28;20174;-80
2023/03/16 01:33:40;;;;;;;2.60;1.60;;;1.90;99.90;;;;;;5057044;28;20218;-78
2023/03/16 01:36:05;;;;;;;6.20;1.53;;;1.90;99.90;;;;;;5064470;28;20237;-80
2023/03/16 01:38:32;;;;;;;10.03;2.40;;;1.90;99.90;;;;;;5058812;28;20211;-81
2023/03/16 01:40:58;;;;;;;5.77;1.83;;;1.90;99.90;;;;;;5069463;28;20172;-79
2023/03/16 01:43:27;;;;;;;4.07;1.83;;;1.90;99.90;;;;;;5055746;28;20187;-79
2023/03/16 01:45:59;;;;;;;5.30;2.30;;;1.90;99.90;;;;;;5068493;28;20215;-81
2023/03/16 01:48:26;;;;;;;5.43;3.07;;;1.90;99.90;;;;;;5053491;28;20214;-78
2023/03/16 01:50:52;;;;;;;6.80;1.97;;;1.90;99.90;;;;;;5072251;28;20595;-79
2023/03/16 01:53:20;;;;;;;6.03;2.03;;;1.80;99.90;;;;;;5055788;28;20229;-80
2023/03/16 01:55:47;;;;;;;5.57;1.73;;;1.90;99.90;;;;;;5055070;28;20257;-80
2023/03/16 01:58:13;;;;;;;8.30;2.17;;;1.90;99.90;;;;;;5070357;28;20182;-79
2023/03/16 02:00:40;;;;;;;5.50;2.03;;;1.80;99.90;;;;;;5055434;28;20218;-79
2023/03/16 02:03:19;;;;;;;9.83;2.13;;;1.80;99.90;;;;;;5073387;28;20217;-80
2023/03/16 02:05:59;;;;;;;6.07;1.93;;;1.70;99.90;;;;;;5065083;28;20220;-79
2023/03/16 02:08:27;;;;;;;7.27;1.90;;;1.70;99.90;;;;;;5064824;28;20213;-80
2023/03/16 02:10:55;;;;;;;5.47;2.37;;;1.70;99.90;;;;;;5054885;28;20198;-80
2023/03/16 02:13:25;;;;;;;8.63;2.10;;;1.70;99.90;;;;;;5050519;28;20627;-81
2023/03/16 02:15:52;;;;;;;6.07;1.80;;;1.70;99.90;;;;;;5068349;28;20211;-78
2023/03/16 02:18:18;;;;;;;7.43;2.20;;;1.70;99.90;;;;;;5054057;28;20206;-80
2023/03/16 02:21:05;;;;;;;3.77;2.10;;;1.60;99.90;;;;;;5054335;28;20216;-80
2023/03/16 02:23:31;;;;;;;6.17;2.20;;;1.70;99.90;;;;;;5070147;28;20210;-80
2023/03/16 02:26:09;;;;;;;5.47;1.43;;;1.70;99.90;;;;;;5069551;28;20206;-77
2023/03/16 02:28:52;;;;;;;9.40;2.47;;;1.70;99.90;;;;;;5063763;28;20692;-78
2023/03/16 02:31:18;;;;;;;6.60;1.93;;;1.70;99.90;;;;;;5066160;28;20723;-79
2023/03/16 02:33:46;;;;;;;7.13;2.43;;;1.70;99.90;;;;;;5053177;28;20208;-77
2023/03/16 02:36:13;;;;;;;3.60;1.50;;;1.70;99.90;;;;;;5054870;28;20285;-79
2023/03/16 02:38:40;;;;;;;7.87;2.23;;;1.60;99.90;;;;;;5053151;28;20220;-78
2023/03/16 02:41:12;;;;;;;7.67;1.67;;;1.60;99.90;;;;;;5067570;28;20202;-79
2023/03/16 02:43:48;;;;;;;4.33;1.83;;;1.60;99.90;;;;;;5068878;28;20182;-78
2023/03/16 02:46:15;;;;;;;4.27;1.93;;;1.60;99.90;;;;;;5070838;28;20218;-80
2023/03/16 02:48:54;;;;;;;5.67;1.70;;;1.60;99.90;;;;;;5054989;28;20221;-79
2023/03/16 02:51:20;;;;;;;6.03;2.43;;;1.60;99.90;;;;;;5047048;28;20701;-80
2023/03/16 02:53:45;;;;;;;7.07;1.80;;;1.60;99.90;;;;;;5068178;28;20207;-79
2023/03/16 02:56:11;;;;;;;5.10;2.50;;;1.60;99.90;;;;;;5070953;28;20662;-79
2023/03/16 02:58:37;;;;;;;7.27;2.00;;;1.60;99.90;;;;;;5065144;28;20183;-78
2023/03/16 03:01:02;;;;;;;14.03;2.40;;;1.60;99.90;;;;;;5067396;28;20207;-78
2023/03/16 03:03:28;;;;;;;6.97;2.20;;;1.60;99.90;;;;;;5066053;28;20257;-79
2023/03/16 03:05:54;;;;;;;3.67;1.83;;;1.60;99.90;;;;;;5067791;28;20211;-80
2023/03/16 03:08:21;;;;;;;13.97;6.37;;;1.60;99.90;;;;;;5054170;28;20714;-79
2023/03/16 03:10:47;;;;;;;9.00;3.80;;;1.60;99.90;;;;;;5065420;28;20540;-80
2023/03/16 03:13:13;;;;;;;6.07;2.13;;;1.50;99.90;;;;;;5069206;28;20310;-79
2023/03/16 03:15:39;;;;;;;5.80;1.73;;;1.60;99.90;;;;;;5068400;28;20242;-77
2023/03/16 03:18:05;;;;;;;10.63;2.73;;;1.50;99.90;;;;;;5051763;28;20206;-80
2023/03/16 03:20:30;;;;;;;7.90;1.97;;;1.50;99.90;;;;;;5052839;28;20224;-80
2023/03/16 03:22:56;;;;;;;6.73;2.23;;;1.50;99.90;;;;;;5064183;28;20172;-79
2023/03/16 03:25:22;;;;;;;5.90;2.60;;;1.50;99.90;;;;;;5055109;28;20270;-79
2023/03/16 03:27:49;;;;;;;12.63;2.57;;;1.50;99.90;;;;;;5063525;28;20215;-78
2023/03/16 03:30:18;;;;;;;7.57;2.77;;;1.40;99.90;;;;;;5068378;28;20220;-79
2023/03/16 03:32:43;;;;;;;3.03;1.97;;;1.50;99.90;;;;;;5066286;28;20224;-78
2023/03/16 03:35:11;;;;;;;4.17;1.80;;;1.50;99.90;;;;;;5064542;28;20657;-79
2023/03/16 03:37:41;;;;;;;6.10;1.90;;;1.40;99.90;;;;;;5054561;28;20179;-80
2023/03/16 03:40:09;;;;;;;8.27;2.37;;;1.40;99.90;;;;;;5052547;28;20205;-78
2023/03/16 03:42:34;;;;;;;5.80;2.20;;;1.40;99.90;;;;;;5052046;28;20233;-80
2023/03/16 03:45:00;;;;;;;7.23;2.00;;;1.40;99.90;;;;;;5068507;28;20203;-77
2023/03/16 03:47:26;;;;;;;4.20;1.87;;;1.50;99.90;;;;;;5058910;28;20207;-80
2023/03/16 03:49:51;;;;;;;7.57;2.47;;;1.40;99.90;;;;;;5050294;28;20180;-79
2023/03/16 03:52:17;;;;;;;8.37;2.13;;;1.50;99.90;;;;;;5057170;28;20282;-78
2023/03/16 03:54:43;;;;;;;7.47;2.10;;;1.40;99.90;;;;;;5060767;28;20219;-78
2023/03/16 03:57:08;;;;;;;8.07;2.43;;;1.40;99.90;;;;;;5060135;28;20200;-80
2023/03/16 03:59:39;;;;;;;7.57;2.23;;;1.40;99.90;;;;;;5046956;28;20283;-80
2023/03/16 04:02:05;;;;;;;8.20;2.60;;;1.30;99.90;;;;;;5043057;28;20207;-78
2023/03/16 04:04:31;;;;;;;7.20;2.73;;;1.30;99.90;;;;;;5049926;28;20203;-78
2023/03/16 04:06:56;;;;;;;9.20;2.50;;;1.30;99.90;;;;;;5061772;28;20219;-79
2023/03/16 04:09:22;;;;;;;5.83;1.90;;;1.30;99.90;;;;;;5060306;28;20623;-80
2023/03/16 04:11:48;;;;;;;7.53;2.33;;;1.30;99.90;;;;;;5060645;28;20227;-79
2023/03/16 04:14:14;;;;;;;6.53;1.90;;;1.30;99.90;;;;;;5046094;28;20214;-78
2023/03/16 04:16:39;;;;;;;9.43;3.10;;;1.30;99.90;;;;;;5051146;28;20202;-80
2023/03/16 04:19:05;;;;;;;11.13;2.27;;;1.30;99.90;;;;;;5059831;28;20211;-80
2023/03/16 04:21:31;;;;;;;4.80;2.20;;;1.30;99.90;;;;;;5063711;28;20272;-79
2023/03/16 04:23:56;;;;;;;8.50;2.23;;;1.30;99.90;;;;;;5050957;28;20218;-78
2023/03/16 04:26:24;;;;;;;5.43;2.33;;;1.30;99.90;;;;;;5074033;28;20200;-79
2023/03/16 04:28:51;;;;;;;7.10;2.30;;;1.30;99.90;;;;;;5080260;28;20226;-78
2023/03/16 04:31:17;;;;;;;6.20;2.60;;;1.20;99.90;;;;;;5084151;28;20178;-80
2023/03/16 04:33:42;;;;;;;6.37;2.20;;;1.20;99.90;;;;;;5082281;28;20234;-78
2023/03/16 04:36:08;;;;;;;10.53;3.17;;;1.20;99.90;;;;;;5067891;28;20239;-80
2023/03/16 04:38:34;;;;;;;5.53;1.77;;;1.20;99.90;;;;;;5063232;28;20215;-80
2023/03/16 04:41:04;;;;;;;7.40;2.70;;;1.20;99.90;;;;;;5072776;28;22304;-79
2023/03/16 04:43:33;;;;;;;8.10;2.60;;;1.10;99.90;;;;;;5066435;28;20176;-80
2023/03/16 04:46:00;;;;;;;8.47;2.57;;;1.10;99.90;;;;;;5074446;28;20219;-79
2023/03/16 04:48:27;;;;;;;6.87;2.20;;;1.10;99.90;;;;;;5065780;28;20216;-80
2023/03/16 04:50:53;;;;;;;6.40;2.30;;;1.10;99.90;;;;;;5075986;28;20210;-79
2023/03/16 04:53:19;;;;;;;8.10;2.30;;;1.00;99.90;;;;;;5063656;28;20238;-79
2023/03/16 04:55:45;;;;;;;4.40;2.50;;;1.00;99.90;;;;;;5085746;28;20230;-77
2023/03/16 04:58:12;;;;;;;6.37;2.17;;;1.00;99.90;;;;;;5090916;28;20179;-79
2023/03/16 05:00:39;;;;;;;7.47;2.97;;;1.10;99.90;;;;;;5058337;28;20507;-81
2023/03/16 05:03:05;;;;;;;5.30;2.37;;;1.10;99.90;;;;;;5063910;28;20226;-79
2023/03/16 05:05:30;;;;;;;7.00;2.30;;;1.10;99.90;;;;;;5067646;28;20270;-80
2023/03/16 05:07:56;;;;;;;10.30;2.70;;;1.10;99.90;;;;;;5059205;28;20175;-78
2023/03/16 05:10:22;;;;;;;6.33;1.93;;;1.10;99.90;;;;;;5083513;28;20258;-79
2023/03/16 05:12:47;;;;;;;7.63;2.50;;;1.10;99.90;;;;;;5067691;28;20465;-79
2023/03/16 05:15:13;;;;;;;7.90;2.80;;;1.10;99.90;;;;;;5081855;28;20223;-80
2023/03/16 05:17:43;;;;;;;7.43;2.53;;;1.10;99.90;;;;;;5069956;28;20217;-80
2023/03/16 05:20:11;;;;;;;8.57;1.77;;;1.10;99.90;;;;;;5073146;28;20674;-80
2023/03/16 05:22:39;;;;;;;6.07;2.07;;;1.10;99.90;;;;;;5054779;28;20236;-80
2023/03/16 05:25:05;;;;;;;20.27;3.50;;;1.10;99.90;;;;;;5047431;28;20303;-80
2023/03/16 05:27:31;;;;;;;6.90;2.17;;;1.10;99.90;;;;;;5065014;28;20228;-80
2023/03/16 05:29:56;;;;;;;6.20;2.47;;;1.20;99.90;;;;;;5053527;28;20207;-77
2023/03/16 05:32:23;;;;;;;4.90;2.23;;;1.20;99.90;;;;;;5066829;28;20586;-79
2023/03/16 05:34:48;;;;;;;12.10;2.70;;;1.20;99.90;;;;;;5063208;28;20225;-78
2023/03/16 05:37:14;;;;;;;6.63;2.67;;;1.30;99.90;;;;;;5065225;28;20661;-80
2023/03/16 05:39:39;;;;;;;18.23;7.30;;;1.30;99.90;;;;;;5064456;28;20207;-79
2023/03/16 05:42:06;;;;;;;11.07;3.73;;;1.40;99.90;;;;;;5054043;28;20241;-78
2023/03/16 05:44:32;;;;;;;13.00;3.10;;;1.40;99.90;;;;;;5053125;28;20211;-79
2023/03/16 05:46:58;;;;;;;12.80;4.77;;;1.50;99.90;;;;;;5043930;28;20274;-77
2023/03/16 05:49:23;;;;;;;12.50;4.13;;;1.50;99.90;;;;;;5066762;28;20200;-80
2023/03/16 05:51:49;;;;;;;8.80;3.30;;;1.60;99.90;;;;;;5052495;28;20215;-78
2023/03/16 05:54:15;;;;;;;7.40;3.50;;;1.60;99.90;;;;;;5064662;28;20220;-80
2023/03/16 05:56:40;;;;;;;9.60;2.70;;;1.60;99.90;;;;;;5045581;28;20255;-79
2023/03/16 05:59:06;;;;;;;8.47;3.33;;;1.60;99.90;;;;;;5048701;28;20357;-78
2023/03/16 06:01:33;;;;;;;7.13;3.43;;;1.70;99.90;;;;;;5068422;28;20600;-80
2023/03/16 06:04:01;;;;;;;7.57;2.87;;;1.70;99.90;;;;;;5076269;28;20204;-79
2023/03/16 06:06:27;;;;;;;7.80;3.37;;;1.80;99.90;;;;;;5088421;28;20203;-80
2023/03/16 06:08:53;;;;;;;7.07;2.90;;;1.80;99.90;;;;;;5088961;28;20228;-80
2023/03/16 06:11:19;;;;;;;9.10;3.23;;;1.80;99.90;;;;;;5088399;28;20613;-79
2023/03/16 06:13:44;;;;;;;8.60;3.07;;;1.90;99.90;;;;;;5082160;28;20257;-79
2023/03/16 06:16:12;;;;;;;6.83;2.70;;;2.20;99.90;;;;;;5084211;28;20203;-79
2023/03/16 06:18:38;;;;;;;8.17;2.67;;;4.60;99.90;;;;;;5090590;28;20202;-79
2023/03/16 06:21:04;;;;;;;7.47;2.60;;;6.60;99.90;;;;;;5087235;28;20207;-81
2023/03/16 06:23:30;;;;;;;6.67;3.43;;;8.50;99.90;;;;;;5090427;28;20267;-81
2023/03/16 06:25:55;;;;;;;5.23;2.60;;;9.60;99.90;;;;;;5055215;28;20223;-78
2023/03/16 06:28:22;;;;;;;7.03;2.37;;;10.60;99.90;;;;;;5059790;28;20625;-78
2023/03/16 06:30:47;;;;;;;7.43;3.08;;;11.30;99.90;;;;;;5056564;28;20210;-78
2023/03/16 06:33:13;;;;;;;3.15;2.10;;;11.90;99.90;;;;;;5073680;28;20268;-78
2023/03/16 06:35:38;;;;;;;6.10;2.35;;;12.60;99.90;;;;;;5068401;28;20565;-79
2023/03/16 06:38:04;;;;;;;8.70;2.60;;;12.80;99.90;;;;;;5070587;28;20260;-79
2023/03/16 06:40:30;;;;;;;5.75;2.45;;;12.90;99.90;;;;;;5076320;28;20179;-79
2023/03/16 06:42:56;;;;;;;9.65;2.90;;;13.10;99.90;;;;;;5056711;28;20299;-78
2023/03/16 06:45:21;;;;;;;6.43;2.22;;;13.50;99.90;;;;;;5073012;28;20648;-79
2023/03/16 06:47:47;;;;;;;9.10;2.78;;;14.00;99.90;;;;;;5068636;28;20257;-79
2023/03/16 06:50:16;;;;;;;4.82;2.38;;;14.40;99.90;;;;;;5054580;28;20551;-79
2023/03/16 06:52:42;;;;;;;3.50;1.98;;;14.60;99.90;;;;;;5053294;28;20198;-78
2023/03/16 06:55:08;;;;;;;8.35;2.90;;;15.00;99.90;;;;;;5066363;28;20270;-78
2023/03/16 06:57:34;;;;;;;5.80;2.33;;;15.10;99.90;;;;;;5063804;28;20222;-79
2023/03/16 07:00:02;;;;;;;6.60;2.65;;;15.40;99.90;;;;;;5065280;28;20206;-79
2023/03/16 07:02:27;;;;;;;6.47;2.40;;;15.30;99.50;;;;;;5069308;28;20230;-79
2023/03/16 07:04:53;;;;;;;4.88;2.83;;;15.60;99.00;;;;;;5050751;28;20199;-78
2023/03/16 07:07:19;;;;;;;6.57;2.75;;;15.80;98.30;;;;;;5066941;28;20179;-78
2023/03/16 07:09:44;;;;;;;5.43;2.25;;;15.90;97.10;;;;;;5049208;28;20219;-77
2023/03/16 07:12:10;;;;;;;6.28;2.28;;;16.00;96.10;;;;;;5052136;28;20785;-78
2023/03/16 07:14:36;;;;;;;6.93;2.47;;;16.20;95.00;;;;;;5067150;28;20213;-78
2023/03/16 07:17:02;;;;;;;6.28;2.75;;;16.50;94.40;;;;;;5062972;28;20640;-78
2023/03/16 07:19:28;;;;;;;5.95;2.63;;;16.70;92.90;;;;;;5052821;28;20179;-78
2023/03/16 07:21:54;;;;;;;6.18;2.60;;;16.60;93.20;;;;;;5066371;28;20211;-79
2023/03/16 07:24:19;;;;;;;4.32;2.28;;;16.80;92.70;;;;;;5067453;28;20211;-78
2023/03/16 07:26:45;;;;;;;4.28;2.15;;;17.10;91.80;;;;;;5064594;28;20207;-78
2023/03/16 07:29:12;;;;;;;4.57;2.13;;;17.00;91.50;;;;;;5051020;28;20645;-78
2023/03/16 07:31:38;;;;;;;5.93;2.70;;;17.20;90.60;;;;;;5063424;28;20232;-78
2023/03/16 07:34:04;;;;;;;8.52;2.60;;;17.10;91.10;;;;;;5063152;28;20212;-78
2023/03/16 07:36:30;;;;;;;5.10;2.22;;;17.20;89.60;;;;;;5066034;28;20556;-78
2023/03/16 07:38:56;;;;;;;5.63;2.50;;;17.20;90.20;;;;;;5051087;28;20208;-77
2023/03/16 07:41:21;;;;;;;5.85;2.50;;;17.10;90.00;;;;;;5051020;28;20203;-78
2023/03/16 07:43:47;;;;;;;4.18;2.35;;;17.60;89.00;;;;;;5069304;28;20199;-78
2023/03/16 07:46:13;;;;;;;6.00;2.35;;;17.40;88.40;;;;;;5067021;28;20207;-78
2023/03/16 07:48:41;;;;;;;6.63;2.50;;;17.50;87.20;;;;;;5051664;28;20732;-78
2023/03/16 07:51:07;;;;;;;9.40;3.20;;;17.50;86.80;;;;;;5062115;28;20210;-76
2023/03/16 07:53:34;;;;;;;5.15;2.28;;;17.60;87.60;;;;;;5049489;28;20203;-76
2023/03/16 07:56:00;;;;;;;6.35;2.20;;;17.60;87.00;;;;;;5063352;28;20297;-77
2023/03/16 07:58:26;;;;;;;7.90;2.90;;;17.60;86.80;;;;;;5068727;28;20181;-77
2023/03/16 08:00:58;;;;;;;9.13;3.13;;;17.80;85.20;;;;;;5061198;28;20712;-78
2023/03/16 08:03:25;;;;;;;3.38;2.28;;;18.00;85.70;;;;;;5045981;28;20211;-78
2023/03/16 08:05:52;;;;;;;6.88;2.63;;;17.40;85.00;;;;;;5067800;28;20206;-79
2023/03/16 08:08:18;;;;;;;6.85;2.03;;;17.50;85.60;;;;;;5066549;28;20306;-80
2023/03/16 08:10:46;;;;;;;4.40;2.50;;;17.80;84.90;;;;;;5064552;28;20207;-78
2023/03/16 08:13:12;;;;;;;6.28;2.17;;;17.60;86.50;;;;;;5054331;28;20555;-79
2023/03/16 08:15:38;;;;;;;5.65;2.38;;;17.90;85.00;;;;;;5070659;28;20261;-81
2023/03/16 08:18:06;;;;;;;7.63;2.50;;;17.60;83.50;;;;;;5055128;28;20609;-78
2023/03/16 08:20:31;;;;;;;5.32;2.13;;;17.60;85.30;;;;;;5056747;28;20201;-78
2023/03/16 08:22:57;;;;;;;5.03;2.05;;;17.50;85.90;;;;;;5062620;28;20204;-79
2023/03/16 08:25:23;;;;;;;5.63;2.47;;;17.80;83.40;;;;;;5067053;28;20190;-79
2023/03/16 08:27:49;;;;;;;5.07;1.85;;;18.10;83.70;;;;;;5067287;28;20286;-77
2023/03/16 08:30:15;;;;;;;4.70;1.92;;;18.10;80.80;;;;;;5058482;28;20250;-78
2023/03/16 08:32:41;;;;;;;4.20;1.80;;;17.80;81.00;;;;;;5064251;28;20259;-79
2023/03/16 08:35:15;;;;;;;5.60;1.80;;;16.80;81.10;;;;;;5063902;28;20306;-79
2023/03/16 08:37:41;;;;;;;5.68;1.92;;;16.90;81.20;;;;;;5059605;28;20220;-79
2023/03/16 08:40:10;;;;;;;4.47;1.55;;;16.90;81.90;;;;;;5076610;28;20248;-79
2023/03/16 08:42:37;;;;;;;4.05;1.80;;;17.00;81.00;;;;;;5054279;28;20636;-79
2023/03/16 08:45:08;;;;;;;4.50;1.85;;;16.70;80.30;;;;;;5064618;28;20204;-79
2023/03/16 08:47:34;;;;;;;4.65;1.52;;;16.40;81.00;;;;;;5073895;28;20202;-78
2023/03/16 08:50:01;;;;;;;3.88;1.80;;;16.30;82.50;;;;;;5052150;28;20747;-81
2023/03/16 08:52:26;;;;;;;5.28;1.60;;;16.20;83.00;;;;;;5057044;28;20179;-80
2023/03/16 08:54:52;;;;;;;4.82;1.70;;;16.20;82.70;;;;;;5052795;28;20221;-80
2023/03/16 08:57:18;;;;;;;3.97;1.67;;;16.20;83.50;;;;;;5069121;28;20308;-80
2023/03/16 08:59:43;;;;;;;5.72;2.05;;;15.60;84.00;;;;;;5056037;28;20218;-78
2023/03/16 09:02:13;;;;;;;6.90;2.00;;;15.60;84.30;;;;;;5064506;28;20219;-80
2023/03/16 09:04:39;;;;;;;6.63;2.00;;;15.60;84.70;;;;;;5066309;28;20186;-79
2023/03/16 09:07:05;;;;;;;7.90;4.75;;;15.50;84.70;;;;;;5053936;28;20214;-79
2023/03/16 09:09:31;;;;;;;4.28;1.92;;;15.00;85.00;;;;;;5065811;28;20230;-79
2023/03/16 09:11:57;;;;;;;12.20;5.72;;;15.20;87.40;;;;;;5048779;28;20282;-77
2023/03/16 09:14:24;;;;;;;6.82;2.35;;;14.40;86.50;;;;;;5066531;28;20214;-79
2023/03/16 09:16:51;;;;;;;5.07;1.80;;;14.60;88.00;;;;;;5045152;28;20172;-80
2023/03/16 09:19:16;;;;;;;4.82;1.33;;;14.90;86.30;;;;;;5055579;28;20715;-78
2023/03/16 09:21:43;;;;;;;4.68;1.50;;;14.40;87.30;;;;;;5053094;28;20282;-79
2023/03/16 09:24:09;;;;;;;3.00;1.35;;;13.80;87.00;;;;;;5069165;28;20199;-80
2023/03/16 09:26:36;;;;;;;3.90;1.53;;;13.70;87.50;;;;;;5069881;28;20202;-80
2023/03/16 09:29:02;;;;;;;4.23;1.57;;;13.50;87.70;;;;;;5066489;28;20296;-80
2023/03/16 09:31:29;;;;;;;5.93;1.60;;;13.40;86.70;;;;;;5073440;28;20191;-80
2023/03/16 09:33:55;;;;;;;3.47;1.40;;;13.40;87.60;;;;;;5068010;28;20202;-80
2023/03/16 09:36:20;;;;;;;4.93;1.60;;;13.40;87.40;;;;;;5055728;28;20213;-78
2023/03/16 09:38:47;;;;;;;4.33;1.40;;;13.50;87.00;;;;;;5054609;28;20207;-79
2023/03/16 09:41:48;;;;;;;4.87;1.70;;;13.50;87.20;;;;;;5055670;28;20225;-80
2023/03/16 09:44:32;;;;;;;4.75;1.70;;;13.60;87.30;;;;;;5051487;28;20492;-80
2023/03/16 09:47:00;;;;;;;6.17;1.50;;;13.50;88.30;;;;;;5065135;28;20207;-80
2023/03/16 09:49:36;;;;;;;4.10;1.70;;;13.40;88.40;;;;;;5067101;28;20178;-80
2023/03/16 09:52:12;;;;;;;4.60;1.50;;;13.00;87.50;;;;;;5051835;28;20203;-80
2023/03/16 09:55:06;;;;;;;3.17;1.57;;;13.30;87.90;;;;;;5052293;28;20226;-81
2023/03/16 09:57:36;;;;;;;5.93;1.47;;;13.30;86.90;;;;;;5067403;28;20296;-78
2023/03/16 10:00:44;;;;;;;7.97;3.00;;;13.70;87.10;;;;;;5062757;28;20686;-83
2023/03/16 10:03:33;;;;;;;5.30;1.70;;;13.70;86.90;;;;;;5070035;28;20313;-79
2023/03/16 10:06:02;;;;;;;4.57;1.37;;;13.90;87.40;;;;;;5024269;28;20627;-79
2023/03/16 10:09:15;;;;;;;5.03;1.37;;;13.60;85.80;;;;;;5079194;28;20270;-80
2023/03/16 10:11:48;;;;;;;2.97;1.60;;;13.70;85.20;;;;;;5003630;28;20197;-81
2023/03/16 10:14:32;;;;;;;4.23;1.77;;;13.50;85.40;;;;;;4999911;28;20232;-80
2023/03/16 10:17:13;;;;;;;5.40;1.80;;;13.50;86.30;;;;;;5051664;28;20199;-81
2023/03/16 10:19:48;;;;;;;8.30;3.00;;;13.40;85.10;;;;;;5068534;28;20215;-79
2023/03/16 10:22:21;;;;;;;3.83;1.63;;;13.50;86.60;;;;;;5049092;28;20728;-80
2023/03/16 10:24:55;;;;;;;5.50;1.53;;;13.30;85.90;;;;;;5072935;28;20206;-79
2023/03/16 10:27:35;;;;;;;4.83;1.43;;;13.40;85.50;;;;;;5071174;28;20260;-80
2023/03/16 10:30:03;;;;;;;3.03;1.27;;;12.70;81.60;;;;;;5067959;28;20205;-77
2023/03/16 10:32:33;;;;;;;5.43;1.47;;;11.70;84.50;;;;;;5064679;28;20282;-79
2023/03/16 10:35:05;;;;;;;4.93;1.47;;;12.00;86.80;;;;;;5073308;28;20191;-79
2023/03/16 10:37:31;;;;;;;2.47;1.23;;;11.80;86.50;;;;;;5082390;28;20221;-81
2023/03/16 10:39:59;;;;;;;6.50;1.40;;;11.20;87.50;;;;;;5081320;28;20199;-79
2023/03/16 10:42:26;;;;;;;4.60;1.10;;;10.80;89.40;;;;;;5071060;28;20234;-80
2023/03/16 10:44:57;;;;;;;3.97;1.30;;;11.30;90.70;;;;;;5055036;28;20790;-79
2023/03/16 10:47:27;;;;;;;5.67;1.60;;;11.70;89.50;;;;;;5067946;28;20207;-81
2023/03/16 10:49:54;;;;;;;3.53;1.40;;;12.10;87.70;;;;;;5067937;28;20233;-80
2023/03/16 10:52:41;;;;;;;7.67;1.50;;;11.60;85.30;;;;;;5065076;28;20713;-80
2023/03/16 10:55:29;;;;;;;3.67;1.37;;;12.00;88.50;;;;;;5050945;28;20302;-80
2023/03/16 10:57:56;;;;;;;5.03;1.63;;;11.60;87.20;;;;;;5066556;28;20217;-80
2023/03/16 11:00:27;;;;;;;6.47;1.57;;;11.70;88.00;;;;;;5066493;28;20208;-80
2023/03/16 11:02:55;;;;;;;4.57;1.07;;;11.80;87.70;;;;;;5054551;28;20457;-79
2023/03/16 11:05:33;;;;;;;5.87;1.60;;;12.00;87.70;;;;;;5054775;28;20219;-80
2023/03/16 11:08:13;;;;;;;3.37;1.10;;;11.80;86.20;;;;;;5068516;28;20218;-79
2023/03/16 11:10:44;;;;;;;6.83;1.60;;;11.30;85.60;;;;;;5052557;28;20663;-79
2023/03/16 11:13:16;;;;;;;3.50;1.50;;;10.70;86.50;;;;;;5064371;28;20231;-81
2023/03/16 11:15:56;;;;;;;5.53;1.50;;;11.00;88.50;;;;;;5054228;28;20724;-80
2023/03/16 11:18:37;;;;;;;3.80;1.30;;;10.80;86.70;;;;;;5065964;28;20607;-79
2023/03/16 11:21:35;;;;;;;3.10;1.53;;;11.30;85.50;;;;;;5068063;28;20195;-80
2023/03/16 11:24:03;;;;;;;4.03;1.48;;;11.80;85.00;;;;;;5042098;28;20945;-81
2023/03/16 11:26:33;;;;;;;5.63;1.53;;;11.40;84.40;;;;;;5063643;28;20210;-80
2023/03/16 11:29:17;;;;;;;3.37;1.20;;;10.60;86.10;;;;;;5066292;28;20638;-80
2023/03/16 11:31:49;;;;;;;7.03;1.57;;;11.00;88.50;;;;;;5063640;28;20626;-81
2023/03/16 11:34:24;;;;;;;3.07;1.17;;;10.90;87.70;;;;;;5050208;28;20192;-82
2023/03/16 11:37:12;;;;;;;1.57;1.20;;;10.80;84.50;;;;;;5064873;28;20259;-80
2023/03/16 11:39:57;;;;;;;3.93;1.50;;;11.20;83.90;;;;;;5066500;28;20207;-80
2023/03/16 11:42:38;;;;;;;5.13;1.40;;;11.80;87.00;;;;;;5046050;28;20221;-79
2023/03/16 11:45:20;;;;;;;5.07;1.00;;;11.80;84.50;;;;;;5065364;28;20554;-82
2023/03/16 11:47:54;;;;;;;4.43;1.47;;;11.50;84.00;;;;;;5064763;28;20225;-80
2023/03/16 11:50:48;;;;;;;3.63;1.30;;;11.20;85.80;;;;;;5065315;28;20222;-80
2023/03/16 11:53:17;;;;;;;2.90;1.17;;;11.40;88.30;;;;;;5065653;28;20207;-79
2023/03/16 11:56:14;;;;;;;4.93;1.60;;;11.00;88.70;;;;;;5064564;28;20672;-80
2023/03/16 11:58:54;;;;;;;3.37;1.53;;;11.20;90.50;;;;;;5063941;28;20206;-81
2023/03/16 12:01:38;;;;;;;4.40;1.53;;;11.60;90.40;;;;;;5071116;28;20228;-79
2023/03/16 12:04:09;;;;;;;3.60;1.10;;;11.70;90.40;;;;;;5048884;28;20206;-79
2023/03/16 12:07:10;;;;;;;4.37;1.70;;;11.90;88.80;;;;;;5079671;28;20195;-80
2023/03/16 12:09:54;;;;;;;4.83;1.33;;;11.70;86.10;;;;;;5054391;28;20848;-78
2023/03/16 12:12:23;;;;;;;4.03;1.40;;;11.50;87.50;;;;;;5065426;28;20223;-79
2023/03/16 12:15:05;;;;;;;3.00;1.43;;;11.40;88.10;;;;;;5067546;28;20290;-79
2023/03/16 12:17:36;;;;;;;2.40;1.13;;;11.10;87.70;;;;;;5064658;28;20727;-79
2023/03/16 12:20:12;;;;;;;3.93;1.77;;;10.80;86.30;;;;;;5063165;28;20214;-79
2023/03/16 12:22:44;;;;;;;4.97;1.47;;;10.60;86.90;;;;;;5066528;28;20313;-79
2023/03/16 12:25:38;;;;;;;3.40;1.37;;;10.70;87.30;;;;;;5067269;28;20210;-80
2023/03/16 12:28:10;;;;;;;4.63;1.13;;;10.60;89.10;;;;;;5039283;28;20302;-79
2023/03/16 12:30:47;;;;;;;2.40;1.20;;;10.30;89.60;;;;;;5063480;28;20712;-80
2023/03/16 12:33:47;;;;;;;4.77;1.80;;;10.60;90.40;;;;;;5069911;28;20198;-79
2023/03/16 12:36:25;;;;;;;3.27;1.33;;;10.30;87.50;;;;;;5067456;28;20206;-77
2023/03/16 12:39:10;;;;;;;3.03;0.90;;;10.40;85.60;;;;;;5047685;28;20203;-79
2023/03/16 12:42:00;;;;;;;2.37;0.93;;;10.10;81.90;;;;;;5068659;28;20198;-80
2023/03/16 12:44:55;;;;;;;4.07;1.10;;;10.10;80.80;;;;;;5052047;28;20277;-79
2023/03/16 12:47:45;;;;;;;3.23;1.27;;;10.10;84.10;;;;;;5053214;28;20204;-79
2023/03/16 12:50:14;;;;;;;4.07;1.30;;;10.10;85.10;;;;;;5050143;28;20273;-78
2023/03/16 12:52:51;;;;;;;5.73;1.40;;;9.70;84.10;;;;;;5049609;28;20179;-79
2023/03/16 12:55:19;;;;;;;3.70;1.40;;;10.10;84.30;;;;;;5054117;28;20226;-79
2023/03/16 12:57:50;;;;;;;3.73;1.20;;;10.30;83.20;;;;;;5054462;28;20211;-81
2023/03/16 13:00:16;;;;;;;1.93;1.00;;;10.20;82.30;;;;;;5062193;28;20436;-79
2023/03/16 13:02:55;;;;;;;4.87;1.30;;;10.30;81.40;;;;;;5065416;28;20227;-77